Time;durP1;ratioP1;P1;durP2;ratioP2;P2;SDS_P1;SDS_P2;PMS_P1;PMS_P2;Temp;Humidity;BMP_temperature;BMP_pressure;BME280_temperature;BME280_humidity;BME280_pressure;Samples;Min_cycle;Max_cycle;Signal;HPM_P1;HPM_P2
2022/03/27 00:01:37;;;;;;;4.78;3.20;;;21.70;46.30;;;;;;5030863;28;20061;-74
2022/03/27 00:04:02;;;;;;;5.47;3.15;;;21.70;46.20;;;;;;5031979;28;20017;-74
2022/03/27 00:06:28;;;;;;;7.20;3.42;;;21.70;46.30;;;;;;5014776;28;20100;-73
2022/03/27 00:08:55;;;;;;;4.47;3.00;;;21.70;46.20;;;;;;5032245;28;20129;-73
2022/03/27 00:11:23;;;;;;;5.80;3.25;;;21.70;46.20;;;;;;5032291;28;20104;-74
2022/03/27 00:13:54;;;;;;;6.45;3.50;;;21.70;46.10;;;;;;5030031;28;20087;-72
2022/03/27 00:16:21;;;;;;;6.05;3.20;;;21.70;46.10;;;;;;5030476;28;20133;-72
2022/03/27 00:18:47;;;;;;;6.30;3.58;;;21.70;46.10;;;;;;5027415;28;20064;-73
2022/03/27 00:21:13;;;;;;;7.10;3.22;;;21.70;46.10;;;;;;5030146;28;20045;-73
2022/03/27 00:23:39;;;;;;;5.78;3.30;;;21.70;46.10;;;;;;5029824;28;20021;-73
2022/03/27 00:26:05;;;;;;;5.85;3.22;;;21.70;46.10;;;;;;5009619;28;20025;-73
2022/03/27 00:28:34;;;;;;;6.68;3.60;;;21.70;46.10;;;;;;5029972;28;20367;-74
2022/03/27 00:31:04;;;;;;;6.00;3.20;;;21.70;46.10;;;;;;5012284;28;20033;-73
2022/03/27 00:33:31;;;;;;;6.43;3.30;;;21.70;46.00;;;;;;5029806;28;20029;-73
2022/03/27 00:35:58;;;;;;;4.72;3.42;;;21.70;46.00;;;;;;5032723;28;20040;-73
2022/03/27 00:38:25;;;;;;;6.18;3.42;;;21.70;46.10;;;;;;5033820;28;20036;-73
2022/03/27 00:40:52;;;;;;;6.05;3.25;;;21.70;46.10;;;;;;4999836;28;20033;-73
2022/03/27 00:43:19;;;;;;;5.15;3.30;;;21.70;46.10;;;;;;4999561;28;20021;-73
2022/03/27 00:45:46;;;;;;;5.53;3.17;;;21.70;46.10;;;;;;5033572;28;20022;-73
2022/03/27 00:48:13;;;;;;;5.25;3.20;;;21.60;46.00;;;;;;5033715;28;20032;-74
2022/03/27 00:50:39;;;;;;;5.20;3.35;;;21.70;46.10;;;;;;5033512;28;20124;-74
2022/03/27 00:53:05;;;;;;;5.03;3.20;;;21.70;46.10;;;;;;5033179;28;20156;-73
2022/03/27 00:55:31;;;;;;;5.65;3.35;;;21.70;46.10;;;;;;5024237;28;20686;-73
2022/03/27 00:57:58;;;;;;;5.88;3.17;;;21.70;46.70;;;;;;5033418;28;20076;-73
2022/03/27 01:00:55;;;;;;;6.53;3.38;;;21.70;46.10;;;;;;5033241;28;20037;-74
2022/03/27 01:03:26;;;;;;;7.10;3.00;;;21.70;46.10;;;;;;5032505;28;20057;-73
2022/03/27 01:05:53;;;;;;;4.20;2.97;;;21.70;46.00;;;;;;5033320;28;20029;-73
2022/03/27 01:11:13;;;;;;;3.92;3.05;;;21.60;46.00;;;;;;5013295;28;20045;-74
2022/03/27 01:13:46;;;;;;;6.82;2.92;;;21.60;46.00;;;;;;5032895;28;20033;-74
2022/03/27 01:16:33;;;;;;;4.93;3.05;;;21.60;46.00;;;;;;5031313;28;20104;-74
2022/03/27 01:19:00;;;;;;;7.53;3.58;;;21.70;46.00;;;;;;5014475;28;20029;-74
2022/03/27 01:21:26;;;;;;;5.82;2.97;;;21.70;46.00;;;;;;5012782;28;20079;-73
2022/03/27 01:23:54;;;;;;;5.53;3.17;;;21.70;46.00;;;;;;5032829;28;20044;-73
2022/03/27 01:26:20;;;;;;;5.28;2.83;;;21.70;46.50;;;;;;5033158;28;20021;-73
2022/03/27 01:28:46;;;;;;;4.82;2.80;;;21.70;45.90;;;;;;4996267;28;20057;-74
2022/03/27 01:31:12;;;;;;;5.78;2.85;;;21.70;46.00;;;;;;4998915;28;20500;-73
2022/03/27 01:33:38;;;;;;;5.60;3.20;;;21.70;46.00;;;;;;4998669;28;20397;-73
2022/03/27 01:36:04;;;;;;;5.20;3.10;;;21.70;46.00;;;;;;5032747;28;20021;-72
2022/03/27 01:38:30;;;;;;;5.70;3.25;;;21.60;45.90;;;;;;5015127;28;20021;-72
2022/03/27 01:40:56;;;;;;;5.00;2.83;;;21.60;45.90;;;;;;5014875;28;20485;-72
2022/03/27 01:43:22;;;;;;;4.95;2.80;;;21.70;46.00;;;;;;5014714;28;20057;-72
2022/03/27 01:45:48;;;;;;;4.47;2.65;;;21.60;45.90;;;;;;5014843;28;20049;-72
2022/03/27 01:48:14;;;;;;;5.43;2.88;;;21.60;46.00;;;;;;5014634;28;20390;-72
2022/03/27 01:50:39;;;;;;;5.03;3.13;;;21.60;45.90;;;;;;5032539;28;20055;-72
2022/03/27 01:53:05;;;;;;;5.45;3.20;;;21.60;46.00;;;;;;5014582;28;20397;-71
2022/03/27 01:55:31;;;;;;;4.75;3.00;;;21.60;46.00;;;;;;5032317;28;20108;-72
2022/03/27 01:57:57;;;;;;;5.78;3.15;;;21.60;45.90;;;;;;5032067;28;20033;-72
2022/03/27 02:00:22;;;;;;;5.18;3.20;;;21.60;45.90;;;;;;5032230;28;20024;-72
2022/03/27 02:02:48;;;;;;;4.82;2.90;;;21.60;46.00;;;;;;5032021;28;20025;-72
2022/03/27 02:05:14;;;;;;;5.82;3.17;;;21.60;45.90;;;;;;5014446;28;20429;-72
2022/03/27 02:07:44;;;;;;;5.97;3.17;;;21.60;45.90;;;;;;5032331;28;20030;-72
2022/03/27 02:10:10;;;;;;;4.97;2.95;;;21.60;45.90;;;;;;4995868;28;20386;-72
2022/03/27 02:12:35;;;;;;;4.78;2.92;;;21.60;46.00;;;;;;5031765;28;20040;-72
2022/03/27 02:15:04;;;;;;;6.45;2.90;;;21.60;45.90;;;;;;5014374;28;20063;-72
2022/03/27 02:17:30;;;;;;;6.20;3.27;;;21.60;45.90;;;;;;5014482;28;20017;-72
2022/03/27 02:19:56;;;;;;;4.47;2.67;;;21.60;45.90;;;;;;4997680;28;20637;-72
2022/03/27 02:22:22;;;;;;;5.95;3.20;;;21.60;45.90;;;;;;5013918;28;20410;-72
2022/03/27 02:24:48;;;;;;;4.18;2.53;;;21.60;45.90;;;;;;5031766;28;20072;-72
2022/03/27 02:27:14;;;;;;;3.92;2.83;;;21.70;46.00;;;;;;5014429;28;20415;-72
2022/03/27 02:29:40;;;;;;;4.63;3.00;;;21.60;45.80;;;;;;5031792;28;20091;-72
2022/03/27 02:32:08;;;;;;;4.20;2.67;;;21.60;45.80;;;;;;4997370;28;20505;-72
2022/03/27 02:34:33;;;;;;;4.97;3.00;;;21.60;45.80;;;;;;4997851;28;20482;-72
2022/03/27 02:36:59;;;;;;;6.15;2.97;;;21.60;45.80;;;;;;5031604;28;20488;-71
2022/03/27 02:39:25;;;;;;;5.20;2.90;;;21.60;45.80;;;;;;5031270;28;20029;-71
2022/03/27 02:41:50;;;;;;;5.45;3.15;;;21.60;45.90;;;;;;5013721;28;20049;-72
2022/03/27 02:44:16;;;;;;;4.43;2.83;;;21.60;45.90;;;;;;5013805;28;20030;-72
2022/03/27 02:46:42;;;;;;;4.10;2.85;;;21.60;45.80;;;;;;5013810;28;20113;-71
2022/03/27 02:49:09;;;;;;;5.13;2.92;;;21.60;45.80;;;;;;5013779;28;20049;-72
2022/03/27 02:51:34;;;;;;;4.57;2.95;;;21.60;45.90;;;;;;5013921;28;20040;-72
2022/03/27 02:54:00;;;;;;;5.30;2.92;;;21.60;45.90;;;;;;5013432;28;20278;-72
2022/03/27 02:56:26;;;;;;;3.70;2.67;;;21.60;45.90;;;;;;5013737;28;20517;-71
2022/03/27 02:58:52;;;;;;;5.28;2.90;;;21.60;45.90;;;;;;5030217;28;20021;-72
2022/03/27 03:01:17;;;;;;;5.20;2.92;;;21.60;45.90;;;;;;5031096;28;20013;-72
2022/03/27 03:03:43;;;;;;;4.30;2.83;;;21.60;45.90;;;;;;5030806;28;20030;-72
2022/03/27 03:06:09;;;;;;;5.00;2.90;;;21.60;45.90;;;;;;5031133;28;20497;-71
2022/03/27 03:08:41;;;;;;;4.97;2.70;;;21.60;45.90;;;;;;5030875;28;20079;-71
2022/03/27 03:11:08;;;;;;;4.78;2.70;;;21.60;45.90;;;;;;5028264;28;20030;-71
2022/03/27 03:13:34;;;;;;;4.10;2.75;;;21.60;45.90;;;;;;5013019;28;20481;-71
2022/03/27 03:16:01;;;;;;;4.38;3.00;;;21.60;45.90;;;;;;5030903;28;20025;-71
2022/03/27 03:18:28;;;;;;;4.47;2.83;;;21.60;45.90;;;;;;4996601;28;20485;-71
2022/03/27 03:20:54;;;;;;;5.88;3.25;;;21.60;45.80;;;;;;5030939;28;20017;-72
2022/03/27 03:23:20;;;;;;;4.53;3.00;;;21.60;45.90;;;;;;5012931;28;20029;-71
2022/03/27 03:25:45;;;;;;;4.30;2.88;;;21.60;45.90;;;;;;5030819;28;20036;-73
2022/03/27 03:28:11;;;;;;;3.60;2.58;;;21.60;45.80;;;;;;5013100;28;20083;-73
2022/03/27 03:30:37;;;;;;;4.78;2.80;;;21.60;45.80;;;;;;4996813;28;20744;-73
2022/03/27 03:33:03;;;;;;;5.53;3.20;;;21.60;45.80;;;;;;5030307;28;20033;-73
2022/03/27 03:35:29;;;;;;;3.63;2.63;;;21.60;45.80;;;;;;5012837;28;20048;-73
2022/03/27 03:37:55;;;;;;;3.75;2.80;;;21.60;45.80;;;;;;5030460;28;20504;-73
2022/03/27 03:40:20;;;;;;;3.92;2.90;;;21.60;45.80;;;;;;5030765;28;20022;-73
2022/03/27 03:42:46;;;;;;;3.70;2.63;;;21.60;45.80;;;;;;5012421;28;20546;-72
2022/03/27 03:45:12;;;;;;;4.07;3.00;;;21.60;45.80;;;;;;4980356;28;20381;-73
2022/03/27 03:47:37;;;;;;;4.35;2.70;;;21.60;45.70;;;;;;5012954;28;20425;-73
2022/03/27 03:50:05;;;;;;;5.05;3.00;;;21.60;46.10;;;;;;5012693;28;20033;-73
2022/03/27 03:52:31;;;;;;;5.50;2.95;;;21.60;45.80;;;;;;5012531;28;20029;-73
2022/03/27 03:54:57;;;;;;;4.70;2.90;;;21.60;45.80;;;;;;5030159;28;20052;-73
2022/03/27 03:57:22;;;;;;;4.03;2.63;;;21.60;45.80;;;;;;5030244;28;20053;-73
2022/03/27 03:59:48;;;;;;;4.18;2.50;;;21.60;45.80;;;;;;5030392;28;20032;-73
2022/03/27 04:02:18;;;;;;;4.25;2.83;;;21.60;45.80;;;;;;5029890;28;20014;-73
2022/03/27 04:04:44;;;;;;;4.90;2.70;;;21.60;45.80;;;;;;5030374;28;20028;-73
2022/03/27 04:07:10;;;;;;;3.50;2.47;;;21.60;45.80;;;;;;5030115;28;20026;-73
2022/03/27 04:09:36;;;;;;;4.40;2.85;;;21.50;45.80;;;;;;5029732;28;20025;-74
2022/03/27 04:12:01;;;;;;;3.40;2.55;;;21.50;45.80;;;;;;5029771;28;20032;-73
2022/03/27 04:14:29;;;;;;;4.97;2.70;;;21.50;45.80;;;;;;5030186;28;20375;-73
2022/03/27 04:16:56;;;;;;;5.35;3.22;;;21.50;45.80;;;;;;4996076;28;20032;-73
2022/03/27 04:19:22;;;;;;;4.38;2.80;;;21.50;45.80;;;;;;5029872;28;20026;-73
2022/03/27 04:21:48;;;;;;;3.40;2.58;;;21.60;45.80;;;;;;5027220;28;20018;-73
2022/03/27 04:24:13;;;;;;;5.22;2.88;;;21.60;45.80;;;;;;5030102;28;20078;-73
2022/03/27 04:26:40;;;;;;;5.07;2.97;;;21.50;45.80;;;;;;5030122;28;20116;-73
2022/03/27 04:29:07;;;;;;;4.05;2.72;;;21.50;45.80;;;;;;5029975;28;20850;-72
2022/03/27 04:31:33;;;;;;;3.88;2.83;;;21.60;45.80;;;;;;5029976;28;20032;-72
2022/03/27 04:33:58;;;;;;;6.15;3.00;;;21.50;45.80;;;;;;5029670;28;20025;-73
2022/03/27 04:36:25;;;;;;;3.95;2.53;;;21.60;45.80;;;;;;5030659;28;20393;-73
2022/03/27 04:38:50;;;;;;;4.13;2.72;;;21.60;45.80;;;;;;5030582;28;20029;-74
2022/03/27 04:41:16;;;;;;;4.50;2.90;;;21.60;45.80;;;;;;5030841;28;20402;-73
2022/03/27 04:43:46;;;;;;;5.82;2.95;;;21.60;45.70;;;;;;5030584;28;20036;-74
2022/03/27 04:46:13;;;;;;;4.70;2.72;;;21.60;45.70;;;;;;5030741;28;20030;-74
2022/03/27 04:48:38;;;;;;;4.40;2.83;;;21.60;45.70;;;;;;5030694;28;20030;-73
2022/03/27 04:51:04;;;;;;;5.18;2.83;;;21.60;45.70;;;;;;5013165;28;20042;-73
2022/03/27 04:53:30;;;;;;;3.67;2.80;;;21.60;45.70;;;;;;5030316;28;20030;-73
2022/03/27 04:55:55;;;;;;;4.75;2.70;;;21.60;45.70;;;;;;5030779;28;20267;-73
2022/03/27 04:58:21;;;;;;;4.18;2.80;;;21.50;45.70;;;;;;5030515;28;20042;-73
2022/03/27 05:00:47;;;;;;;4.35;2.80;;;21.60;45.80;;;;;;5030675;28;20236;-73
2022/03/27 05:03:12;;;;;;;4.97;2.78;;;21.50;45.70;;;;;;5030216;28;20101;-73
2022/03/27 05:05:39;;;;;;;4.85;2.80;;;21.50;45.80;;;;;;5030877;28;20026;-74
2022/03/27 05:08:05;;;;;;;4.60;2.80;;;21.50;45.70;;;;;;5030701;28;20033;-74
2022/03/27 05:10:31;;;;;;;5.22;3.08;;;21.60;45.80;;;;;;5030335;28;20079;-73
2022/03/27 05:12:57;;;;;;;4.22;2.95;;;21.60;45.80;;;;;;5012791;28;20033;-73
2022/03/27 05:15:23;;;;;;;4.38;2.80;;;21.50;45.80;;;;;;5030587;28;20029;-73
2022/03/27 05:17:58;;;;;;;4.80;3.00;;;21.50;45.70;;;;;;5030252;28;20032;-73
2022/03/27 05:20:27;;;;;;;4.75;3.00;;;21.60;45.80;;;;;;5013150;28;20119;-73
2022/03/27 05:22:54;;;;;;;4.93;3.00;;;21.50;45.80;;;;;;5014952;28;20104;-73
2022/03/27 05:25:20;;;;;;;5.55;2.75;;;21.50;45.70;;;;;;5034005;28;20029;-73
2022/03/27 05:27:48;;;;;;;3.47;2.67;;;21.60;45.80;;;;;;5000035;28;20032;-72
2022/03/27 05:30:19;;;;;;;4.18;2.75;;;21.50;45.80;;;;;;5016029;28;20037;-72
2022/03/27 05:32:45;;;;;;;4.68;3.08;;;21.50;45.70;;;;;;5033545;28;20105;-72
2022/03/27 05:35:11;;;;;;;4.63;2.90;;;21.50;45.70;;;;;;5033827;28;20410;-73
2022/03/27 05:37:38;;;;;;;6.85;3.22;;;21.50;45.80;;;;;;5033579;28;20048;-73
2022/03/27 05:40:06;;;;;;;4.57;2.95;;;21.60;45.80;;;;;;5033564;28;20026;-73
2022/03/27 05:42:32;;;;;;;4.35;3.10;;;21.50;45.70;;;;;;5015685;28;20029;-73
2022/03/27 05:44:57;;;;;;;5.22;3.08;;;21.60;45.70;;;;;;5033494;28;20033;-73
2022/03/27 05:47:23;;;;;;;5.32;3.00;;;21.50;45.60;;;;;;5033162;28;20124;-73
2022/03/27 05:49:49;;;;;;;4.07;2.60;;;21.50;45.70;;;;;;5015430;28;20457;-73
2022/03/27 05:52:16;;;;;;;4.50;3.30;;;21.60;45.70;;;;;;4998844;28;20033;-73
2022/03/27 05:54:42;;;;;;;4.82;3.03;;;21.60;45.70;;;;;;5015232;28;20041;-73
2022/03/27 05:57:08;;;;;;;5.70;3.35;;;21.50;45.70;;;;;;5033318;28;20033;-73
2022/03/27 05:59:34;;;;;;;6.10;3.08;;;21.50;45.70;;;;;;5015541;28;20034;-73
2022/03/27 06:02:00;;;;;;;4.45;2.97;;;21.50;45.60;;;;;;5033019;28;20030;-73
2022/03/27 06:04:26;;;;;;;5.13;3.38;;;21.60;45.70;;;;;;5032999;28;20030;-74
2022/03/27 06:06:52;;;;;;;5.03;3.20;;;21.60;45.80;;;;;;5033397;28;20032;-74
2022/03/27 06:09:18;;;;;;;5.10;3.30;;;21.50;45.70;;;;;;5033165;28;20033;-74
2022/03/27 06:11:44;;;;;;;5.45;3.42;;;21.50;45.70;;;;;;5033080;28;20021;-73
2022/03/27 06:14:09;;;;;;;4.03;2.90;;;21.60;45.70;;;;;;5032686;28;20033;-73
2022/03/27 06:16:36;;;;;;;4.90;3.20;;;21.50;46.30;;;;;;5032967;28;20029;-73
2022/03/27 06:19:02;;;;;;;4.35;2.88;;;21.60;45.70;;;;;;5032968;28;20064;-73
2022/03/27 06:21:27;;;;;;;5.25;3.53;;;21.50;45.70;;;;;;5015212;28;20124;-73
2022/03/27 06:23:53;;;;;;;6.60;3.50;;;21.60;45.70;;;;;;5032571;28;20029;-73
2022/03/27 06:26:19;;;;;;;5.78;3.50;;;21.50;45.70;;;;;;5032997;28;20508;-73
2022/03/27 06:28:44;;;;;;;4.72;3.30;;;21.60;45.70;;;;;;5032730;28;20039;-73
2022/03/27 06:31:10;;;;;;;5.50;3.15;;;21.60;45.70;;;;;;5015328;28;20113;-73
2022/03/27 06:33:36;;;;;;;4.65;3.20;;;21.50;45.70;;;;;;5032284;28;20037;-73
2022/03/27 06:36:01;;;;;;;4.90;3.15;;;21.60;45.70;;;;;;5015155;28;20029;-73
2022/03/27 06:38:28;;;;;;;6.55;3.45;;;21.50;45.70;;;;;;5032399;28;20076;-73
2022/03/27 06:40:55;;;;;;;4.78;3.40;;;21.50;45.70;;;;;;5014770;28;20038;-73
2022/03/27 06:43:22;;;;;;;6.95;3.45;;;21.50;45.60;;;;;;5014531;28;20040;-73
2022/03/27 06:45:49;;;;;;;6.53;3.38;;;21.50;46.30;;;;;;5032480;28;20030;-73
2022/03/27 06:48:15;;;;;;;4.63;3.13;;;21.50;45.60;;;;;;5014844;28;20418;-73
2022/03/27 06:50:41;;;;;;;4.80;3.40;;;21.50;45.60;;;;;;5014664;28;20033;-74
2022/03/27 06:53:07;;;;;;;5.75;3.30;;;21.50;45.60;;;;;;5031935;28;20431;-73
2022/03/27 06:55:33;;;;;;;5.15;3.25;;;21.60;45.70;;;;;;5032387;28;20025;-73
2022/03/27 06:57:59;;;;;;;4.35;2.90;;;21.60;45.60;;;;;;5032138;28;20041;-73
2022/03/27 07:03:12;;;;;;;4.20;3.25;;;21.50;45.60;;;;;;5014155;28;20029;-73
2022/03/27 07:05:43;;;;;;;4.63;3.13;;;21.50;45.60;;;;;;5032110;28;20022;-73
2022/03/27 07:08:13;;;;;;;5.18;3.28;;;21.50;45.60;;;;;;5031986;28;20057;-73
2022/03/27 07:10:41;;;;;;;5.95;2.90;;;21.50;45.70;;;;;;5014776;28;20501;-73
2022/03/27 07:13:09;;;;;;;5.18;3.22;;;21.50;45.60;;;;;;5014090;28;20033;-73
2022/03/27 07:15:36;;;;;;;4.53;3.10;;;21.50;45.70;;;;;;5014515;28;20036;-73
2022/03/27 07:18:03;;;;;;;4.43;2.97;;;21.50;45.70;;;;;;5013534;28;20086;-73
2022/03/27 07:20:30;;;;;;;7.55;3.50;;;21.60;45.70;;;;;;5031189;28;20478;-72
2022/03/27 07:22:59;;;;;;;6.28;3.47;;;21.50;45.70;;;;;;5030882;28;20041;-72
2022/03/27 07:25:28;;;;;;;4.90;3.20;;;21.60;45.70;;;;;;5031551;28;20034;-73
2022/03/27 07:27:54;;;;;;;4.60;3.15;;;21.50;45.70;;;;;;5031805;28;20260;-73
2022/03/27 07:30:21;;;;;;;5.43;3.47;;;21.50;45.60;;;;;;5031409;28;20044;-73
2022/03/27 07:32:47;;;;;;;5.82;3.28;;;21.50;45.70;;;;;;5031435;28;20547;-73
2022/03/27 07:35:14;;;;;;;4.45;3.13;;;21.50;45.70;;;;;;5031291;28;20021;-73
2022/03/27 07:37:41;;;;;;;5.47;3.40;;;21.50;45.60;;;;;;5012917;28;20124;-74
2022/03/27 07:40:08;;;;;;;5.35;3.40;;;21.50;46.30;;;;;;5027748;28;20034;-75
2022/03/27 07:42:40;;;;;;;5.05;3.28;;;21.50;45.70;;;;;;5031092;28;20032;-71
2022/03/27 07:45:06;;;;;;;11.40;5.53;;;21.60;45.80;;;;;;5031072;28;20025;-71
2022/03/27 07:47:32;;;;;;;14.05;8.30;;;21.50;45.00;;;;;;5031453;28;20021;-71
2022/03/27 07:49:59;;;;;;;14.52;7.90;;;21.30;43.80;;;;;;5031155;28;20366;-71
2022/03/27 07:52:25;;;;;;;13.13;7.78;;;21.10;43.20;;;;;;5031191;28;20489;-72
2022/03/27 07:54:51;;;;;;;13.90;8.43;;;21.00;43.20;;;;;;5013879;28;20044;-70
2022/03/27 07:57:17;;;;;;;14.05;8.38;;;21.00;43.00;;;;;;5031337;28;20053;-71
2022/03/27 07:59:44;;;;;;;13.15;8.63;;;20.90;42.80;;;;;;5031366;28;20394;-71
2022/03/27 08:02:09;;;;;;;15.90;8.60;;;20.80;42.80;;;;;;5031050;28;20029;-73
2022/03/27 08:04:35;;;;;;;15.15;7.57;;;20.80;42.90;;;;;;5031050;28;20029;-73
2022/03/27 08:07:01;;;;;;;11.15;6.53;;;20.90;43.30;;;;;;4997195;28;20096;-69
2022/03/27 08:09:27;;;;;;;13.55;9.38;;;21.10;43.20;;;;;;5031087;28;20036;-69
2022/03/27 08:11:55;;;;;;;16.65;10.52;;;21.10;43.00;;;;;;5031190;28;20037;-70
2022/03/27 08:14:21;;;;;;;16.77;10.02;;;21.10;42.90;;;;;;4998608;28;20025;-73
2022/03/27 08:16:47;;;;;;;16.92;7.97;;;21.10;43.20;;;;;;5028487;28;20026;-73
2022/03/27 08:19:12;;;;;;;13.15;8.02;;;21.30;43.60;;;;;;5029733;28;20026;-73
2022/03/27 08:21:39;;;;;;;15.77;8.35;;;21.40;43.80;;;;;;5024207;28;20119;-73
2022/03/27 08:24:05;;;;;;;13.38;8.30;;;21.50;43.90;;;;;;5033849;28;20033;-72
2022/03/27 08:29:15;;;;;;;13.98;7.05;;;21.60;44.00;;;;;;5011065;28;20038;-70
2022/03/27 08:31:41;;;;;;;11.10;7.28;;;21.50;43.20;;;;;;5011513;28;20071;-70
2022/03/27 08:34:07;;;;;;;12.43;6.78;;;21.40;42.80;;;;;;5032868;28;20048;-72
2022/03/27 08:36:33;;;;;;;10.93;6.53;;;21.20;43.40;;;;;;5050959;28;20032;-70
2022/03/27 08:38:59;;;;;;;10.75;6.47;;;21.20;42.80;;;;;;5028384;28;20026;-70
2022/03/27 08:41:26;;;;;;;12.15;6.95;;;21.10;43.10;;;;;;4997207;28;20037;-71
2022/03/27 08:43:58;;;;;;;9.73;6.00;;;21.00;42.90;;;;;;5030691;28;20061;-69
2022/03/27 08:46:28;;;;;;;8.23;4.85;;;21.10;43.30;;;;;;5030975;28;20052;-71
2022/03/27 08:49:00;;;;;;;8.20;4.63;;;21.20;43.40;;;;;;5030752;28;20550;-71
2022/03/27 08:51:33;;;;;;;7.50;4.40;;;21.40;43.60;;;;;;5030865;28;20041;-72
2022/03/27 08:54:22;;;;;;;9.63;4.28;;;21.50;43.60;;;;;;5024898;28;20033;-71
2022/03/27 08:57:00;;;;;;;9.13;3.88;;;21.60;43.60;;;;;;5032946;28;20044;-70
2022/03/27 08:59:27;;;;;;;9.30;3.70;;;21.70;44.00;;;;;;5034057;28;20030;-72
2022/03/27 09:01:53;;;;;;;21.65;3.83;;;21.80;44.50;;;;;;5034194;28;20025;-72
2022/03/27 09:04:41;;;;;;;10.98;3.83;;;21.90;44.30;;;;;;5034194;28;20048;-71
2022/03/27 09:07:06;;;;;;;14.63;3.60;;;21.90;44.30;;;;;;5032806;28;20196;-72
2022/03/27 09:09:35;;;;;;;8.63;3.15;;;21.90;44.30;;;;;;5033682;28;20550;-71
2022/03/27 09:12:04;;;;;;;13.63;3.28;;;21.90;44.40;;;;;;5033914;28;20040;-71
2022/03/27 09:14:34;;;;;;;15.85;3.40;;;21.90;44.50;;;;;;5034219;28;20398;-72
2022/03/27 09:17:05;;;;;;;8.23;3.17;;;21.90;44.50;;;;;;5034251;28;20079;-71
2022/03/27 09:19:43;;;;;;;14.15;3.17;;;21.90;44.60;;;;;;5034071;28;20112;-72
2022/03/27 09:22:17;;;;;;;8.02;3.20;;;21.90;44.70;;;;;;5032629;28;20028;-71
2022/03/27 09:24:55;;;;;;;6.72;2.95;;;21.90;44.80;;;;;;5033182;28;20033;-72
2022/03/27 09:27:29;;;;;;;6.90;3.00;;;21.90;44.90;;;;;;5034260;28;20056;-72
2022/03/27 09:29:59;;;;;;;7.95;3.00;;;21.90;44.90;;;;;;5033902;28;20383;-72
2022/03/27 09:32:35;;;;;;;7.40;3.00;;;21.90;45.00;;;;;;5033719;28;20489;-71
2022/03/27 09:35:21;;;;;;;8.70;2.95;;;21.90;45.00;;;;;;5034055;28;20124;-72
2022/03/27 09:37:47;;;;;;;11.02;3.05;;;21.90;45.00;;;;;;5031578;28;20128;-72
2022/03/27 09:40:16;;;;;;;6.05;2.90;;;21.90;45.70;;;;;;5033588;28;20033;-72
2022/03/27 09:42:43;;;;;;;4.53;2.67;;;21.90;45.20;;;;;;5033535;28;20056;-72
2022/03/27 09:45:25;;;;;;;9.75;2.90;;;21.90;45.30;;;;;;5032751;28;20398;-72
2022/03/27 09:47:53;;;;;;;7.20;2.97;;;21.90;46.00;;;;;;5033689;28;20104;-72
2022/03/27 09:50:34;;;;;;;6.75;2.90;;;21.90;45.40;;;;;;5033671;28;20397;-72
2022/03/27 09:53:28;;;;;;;7.20;3.30;;;21.90;45.40;;;;;;5033574;28;20056;-72
2022/03/27 09:55:58;;;;;;;4.35;2.45;;;21.90;45.40;;;;;;5032656;28;20037;-72
2022/03/27 09:58:37;;;;;;;8.75;2.83;;;21.90;45.50;;;;;;5033449;28;20026;-72
2022/03/27 10:01:18;;;;;;;7.50;2.70;;;21.90;45.40;;;;;;5032073;28;20101;-72
2022/03/27 10:04:02;;;;;;;7.90;2.50;;;22.00;45.50;;;;;;5033166;28;20033;-72
2022/03/27 10:06:33;;;;;;;5.63;2.60;;;21.90;45.50;;;;;;5032366;28;20067;-72
2022/03/27 10:09:03;;;;;;;5.65;2.58;;;22.00;45.60;;;;;;5032756;28;20037;-72
2022/03/27 10:11:29;;;;;;;4.95;2.53;;;22.00;45.60;;;;;;5033031;28;20029;-72
2022/03/27 10:13:56;;;;;;;4.68;2.75;;;22.00;45.70;;;;;;5032776;28;20505;-72
2022/03/27 10:16:30;;;;;;;3.92;2.47;;;22.00;45.70;;;;;;5031764;28;20029;-72
2022/03/27 10:19:05;;;;;;;4.82;2.33;;;22.00;45.70;;;;;;5031755;28;20036;-71
2022/03/27 10:21:32;;;;;;;5.43;2.45;;;22.00;45.80;;;;;;5033433;28;20103;-72
2022/03/27 10:24:10;;;;;;;3.72;2.25;;;22.00;45.80;;;;;;5031435;28;20025;-72
2022/03/27 10:26:37;;;;;;;6.40;2.65;;;22.00;45.90;;;;;;5032924;28;20032;-72
2022/03/27 10:29:05;;;;;;;5.65;2.75;;;22.00;45.90;;;;;;5033271;28;20036;-72
2022/03/27 10:31:31;;;;;;;5.82;2.80;;;22.00;45.90;;;;;;5015133;28;20128;-72
2022/03/27 10:34:00;;;;;;;5.28;2.83;;;22.00;46.00;;;;;;5015432;28;20128;-72
2022/03/27 10:36:45;;;;;;;5.15;2.70;;;22.00;46.00;;;;;;5032764;28;20029;-72
2022/03/27 10:39:25;;;;;;;5.07;2.42;;;22.00;46.00;;;;;;5031442;28;20240;-72
2022/03/27 10:41:51;;;;;;;6.28;2.70;;;22.00;46.00;;;;;;5032626;28;20112;-72
2022/03/27 10:44:37;;;;;;;4.90;2.70;;;22.00;46.10;;;;;;5033099;28;20145;-73
2022/03/27 10:47:15;;;;;;;4.00;2.70;;;22.00;46.10;;;;;;5032366;28;20120;-72
2022/03/27 10:50:08;;;;;;;6.13;3.03;;;22.00;46.10;;;;;;5031761;28;20116;-72
2022/03/27 10:52:57;;;;;;;7.47;2.90;;;22.00;46.10;;;;;;5032525;28;20033;-73
2022/03/27 10:55:39;;;;;;;5.38;2.72;;;22.00;46.20;;;;;;5032351;28;20040;-72
2022/03/27 10:58:30;;;;;;;4.30;2.92;;;22.00;46.20;;;;;;5032385;28;20045;-73
2022/03/27 11:00:57;;;;;;;5.32;3.10;;;22.00;46.20;;;;;;5032257;28;20021;-73
2022/03/27 11:03:44;;;;;;;7.05;3.55;;;21.90;46.10;;;;;;5030879;28;20021;-72
2022/03/27 11:06:23;;;;;;;7.45;2.67;;;21.90;46.10;;;;;;5032071;28;20021;-72
2022/03/27 11:08:49;;;;;;;4.90;3.05;;;21.90;46.10;;;;;;5030905;28;20029;-72
2022/03/27 11:11:33;;;;;;;7.05;3.10;;;21.90;46.10;;;;;;5030895;28;20535;-72
2022/03/27 11:14:00;;;;;;;6.75;3.13;;;22.00;46.10;;;;;;5030550;28;20038;-72
2022/03/27 11:16:26;;;;;;;8.52;3.03;;;21.90;46.20;;;;;;5031978;28;20025;-72
2022/03/27 11:18:51;;;;;;;5.30;2.75;;;21.90;46.20;;;;;;5031694;28;20032;-72
2022/03/27 11:21:26;;;;;;;7.60;3.30;;;21.90;46.20;;;;;;5030219;28;20108;-72
2022/03/27 11:23:55;;;;;;;5.68;2.90;;;21.90;46.20;;;;;;5030357;28;20025;-72
2022/03/27 11:26:20;;;;;;;5.20;2.88;;;21.90;46.20;;;;;;5031773;28;20382;-73
2022/03/27 11:28:54;;;;;;;5.78;3.10;;;21.90;46.20;;;;;;5031643;28;20026;-72
2022/03/27 11:31:33;;;;;;;5.32;3.40;;;21.90;46.30;;;;;;5031626;28;20040;-73
2022/03/27 11:34:05;;;;;;;5.43;3.33;;;21.90;46.30;;;;;;5030229;28;20600;-73
2022/03/27 11:36:32;;;;;;;5.32;3.10;;;21.90;46.20;;;;;;5031692;28;20069;-72
2022/03/27 11:39:08;;;;;;;4.70;2.60;;;21.90;46.20;;;;;;5030183;28;20083;-72
2022/03/27 11:41:45;;;;;;;5.10;3.00;;;21.90;46.20;;;;;;5031883;28;20034;-72
2022/03/27 11:47:40;;;;;;;5.60;3.25;;;21.90;46.20;;;;;;4989476;28;20034;-72
2022/03/27 11:50:07;;;;;;;5.28;3.17;;;21.90;46.30;;;;;;4989632;28;20030;-72
2022/03/27 11:52:34;;;;;;;4.68;3.00;;;21.90;46.30;;;;;;5011533;28;20042;-72
2022/03/27 11:55:13;;;;;;;6.45;2.95;;;21.90;46.40;;;;;;5031436;28;20025;-72
2022/03/27 11:57:48;;;;;;;5.07;3.20;;;21.90;46.30;;;;;;5031716;28;20040;-72
2022/03/27 12:00:16;;;;;;;7.57;3.55;;;21.90;46.30;;;;;;5031206;28;20026;-73
2022/03/27 12:02:45;;;;;;;6.60;3.33;;;21.90;46.30;;;;;;5031186;28;20532;-72
2022/03/27 12:05:12;;;;;;;;;;;21.90;46.30;;;;;;5030554;28;20021;-73
2022/03/27 12:07:53;;;;;;;4.90;2.90;;;21.90;46.20;;;;;;5031247;28;20289;-73
2022/03/27 12:10:21;;;;;;;5.97;3.40;;;21.90;46.30;;;;;;5029879;28;20026;-73
2022/03/27 12:12:57;;;;;;;6.18;3.13;;;21.90;46.20;;;;;;5013573;28;20489;-73
2022/03/27 12:15:35;;;;;;;5.78;2.72;;;21.90;46.20;;;;;;5031228;28;20177;-73
2022/03/27 12:18:03;;;;;;;6.57;3.35;;;21.90;46.20;;;;;;5031058;28;20113;-73
2022/03/27 12:20:30;;;;;;;5.28;2.95;;;21.90;46.20;;;;;;5031201;28;20022;-73
2022/03/27 12:22:56;;;;;;;4.95;3.03;;;21.90;46.20;;;;;;5029344;28;20032;-73
2022/03/27 12:25:25;;;;;;;4.47;2.88;;;21.90;46.30;;;;;;5031430;28;20025;-73
2022/03/27 12:30:51;;;;;;;6.75;3.33;;;21.90;46.30;;;;;;5032055;28;20029;-73
2022/03/27 12:33:21;;;;;;;6.15;3.13;;;21.90;46.20;;;;;;5033599;28;20092;-73
2022/03/27 12:36:05;;;;;;;4.72;2.83;;;21.90;46.20;;;;;;5017494;28;20428;-73
2022/03/27 12:38:33;;;;;;;4.65;2.97;;;21.90;46.20;;;;;;5034827;28;20025;-73
2022/03/27 12:40:59;;;;;;;6.63;3.50;;;21.80;46.30;;;;;;5034929;28;20021;-73
2022/03/27 12:43:24;;;;;;;5.93;3.13;;;21.80;46.20;;;;;;5016933;28;20378;-73
2022/03/27 12:45:50;;;;;;;6.20;3.35;;;21.90;46.30;;;;;;5033616;28;20031;-73
2022/03/27 12:48:18;;;;;;;5.40;2.88;;;21.80;46.30;;;;;;5034848;28;20076;-73
2022/03/27 12:50:46;;;;;;;6.05;3.17;;;21.90;46.30;;;;;;5034798;28;20079;-73
2022/03/27 12:53:24;;;;;;;4.15;2.80;;;21.80;46.10;;;;;;5034339;28;20052;-73
2022/03/27 12:56:06;;;;;;;6.45;3.33;;;21.90;46.30;;;;;;5034731;28;20516;-73
2022/03/27 12:58:42;;;;;;;6.00;2.92;;;21.90;46.30;;;;;;5016666;28;20040;-73
2022/03/27 13:01:19;;;;;;;5.82;2.70;;;21.80;46.20;;;;;;5034805;28;20025;-73
2022/03/27 13:04:08;;;;;;;5.82;3.00;;;21.90;46.20;;;;;;5033011;28;20497;-73
2022/03/27 13:06:50;;;;;;;4.55;3.00;;;21.90;46.30;;;;;;5034628;28;20112;-73
2022/03/27 13:09:21;;;;;;;5.25;2.90;;;21.90;46.30;;;;;;5034372;28;20441;-73